Knox City, Texas
Current Conditions -  °F | °C
As of 12:36 PM on Thursday 23 Oct 2014 (Local Time) from KF05 Reporting Station
Clear Clear  
Wind Chill: 75°   Ceiling: Unl
Heat Index: 75°   Visibility: 10mi
Dew Point: 57°   Wind: 13mph
Humidity: 53%   Direction: 210°SSW
Pressure: 30.13"   Gusts: NA
Location:  33.42°N, 99.82°W
Report Text: KF05 231736Z AUTO 21011KT 10SM CLR 24/14 A3013 RMK AO2
Loading
Personal Weather Stations






























Interactive Weather Map
Tropical Storm Tracking
New forecast layout! Learn more

10-Day Weather Forecast

Advertisements
Track Severe Weather on mobile